Time;durP1;ratioP1;P1;durP2;ratioP2;P2;SDS_P1;SDS_P2;PMS_P1;PMS_P2;Temp;Humidity;BMP_temperature;BMP_pressure;BME280_temperature;BME280_humidity;BME280_pressure;Samples;Min_cycle;Max_cycle;Signal;HPM_P1;HPM_P2
2022/01/05 00:00:34;;;;;;;2.00;0.60;;;6.30;92.00;;;;;;4956490;28;20117;-69
2022/01/05 00:03:00;;;;;;;3.65;1.40;;;6.30;92.10;;;;;;4955171;28;20780;-69
2022/01/05 00:05:26;;;;;;;1.63;0.70;;;6.30;92.20;;;;;;4952272;28;20438;-68
2022/01/05 00:07:51;;;;;;;2.60;1.00;;;6.20;92.00;;;;;;4955866;28;20039;-68
2022/01/05 00:10:17;;;;;;;1.17;0.80;;;6.20;92.00;;;;;;4955979;28;20035;-68
2022/01/05 00:12:43;;;;;;;1.48;0.80;;;6.20;92.00;;;;;;4959264;28;20031;-68
2022/01/05 00:15:09;;;;;;;1.55;0.82;;;6.20;92.00;;;;;;4957859;28;20605;-69
2022/01/05 00:17:35;;;;;;;2.25;0.90;;;6.20;92.10;;;;;;4959245;28;20034;-69
2022/01/05 00:20:02;;;;;;;3.30;0.93;;;6.20;92.10;;;;;;4953908;28;20483;-69
2022/01/05 00:22:28;;;;;;;2.40;0.88;;;6.20;92.20;;;;;;4958237;28;20089;-70
2022/01/05 00:24:54;;;;;;;3.75;0.80;;;6.30;92.10;;;;;;4959709;28;20279;-69
2022/01/05 00:27:19;;;;;;;2.20;0.75;;;6.30;92.00;;;;;;4952753;28;20035;-69
2022/01/05 00:29:46;;;;;;;0.90;0.85;;;6.40;92.00;;;;;;4944278;28;20031;-68
2022/01/05 00:32:11;;;;;;;2.08;0.98;;;6.40;92.00;;;;;;4954178;28;20038;-68
2022/01/05 00:34:37;;;;;;;1.05;0.77;;;6.50;92.10;;;;;;4957357;28;20023;-70
2022/01/05 00:37:03;;;;;;;5.47;1.02;;;6.50;92.00;;;;;;4958583;28;20083;-69
2022/01/05 00:39:29;;;;;;;2.70;0.77;;;6.60;91.90;;;;;;4956865;28;20038;-69
2022/01/05 00:41:55;;;;;;;1.60;0.93;;;6.60;91.70;;;;;;4953965;28;20071;-69
2022/01/05 00:44:21;;;;;;;2.45;0.98;;;6.60;91.50;;;;;;4953818;28;20090;-69
2022/01/05 00:46:47;;;;;;;1.50;0.80;;;6.70;91.70;;;;;;4957049;28;20027;-70
2022/01/05 00:49:13;;;;;;;3.97;1.05;;;6.70;91.30;;;;;;4954429;28;20491;-68
2022/01/05 00:51:39;;;;;;;2.17;0.90;;;6.70;91.20;;;;;;4955162;28;20038;-68
2022/01/05 00:54:06;;;;;;;2.53;0.80;;;6.60;91.10;;;;;;4955845;28;20047;-69
2022/01/05 00:56:32;;;;;;;1.50;0.70;;;6.60;91.00;;;;;;4960921;28;20037;-70
2022/01/05 00:58:58;;;;;;;3.70;0.85;;;6.60;90.90;;;;;;4951759;28;20027;-70
2022/01/05 01:01:24;;;;;;;3.92;0.70;;;6.60;91.10;;;;;;4953395;28;20027;-71
2022/01/05 01:03:50;;;;;;;2.72;0.90;;;6.60;91.20;;;;;;4952589;28;20035;-69
2022/01/05 01:06:16;;;;;;;3.25;1.48;;;6.60;91.50;;;;;;4953742;28;20454;-70
2022/01/05 01:08:42;;;;;;;5.20;1.42;;;6.60;91.60;;;;;;4955310;28;20039;-70
2022/01/05 01:11:07;;;;;;;2.45;0.70;;;6.60;91.60;;;;;;4947346;28;20081;-70
2022/01/05 01:13:34;;;;;;;3.50;0.90;;;6.70;91.60;;;;;;4957218;28;20097;-70
2022/01/05 01:16:00;;;;;;;4.95;1.20;;;6.70;91.50;;;;;;4954188;28;20077;-70
2022/01/05 01:18:25;;;;;;;2.13;0.70;;;6.80;91.40;;;;;;4957997;28;20491;-70
2022/01/05 01:20:51;;;;;;;2.90;0.70;;;6.80;91.30;;;;;;4959873;28;20023;-70
2022/01/05 01:23:21;;;;;;;5.05;0.63;;;6.80;91.30;;;;;;4956538;28;20596;-70
2022/01/05 01:25:50;;;;;;;1.63;0.70;;;6.80;91.10;;;;;;4951338;28;20059;-70
2022/01/05 01:28:16;;;;;;;3.05;0.77;;;6.80;91.20;;;;;;4956971;28;20046;-69
2022/01/05 01:30:42;;;;;;;2.70;0.88;;;6.80;91.10;;;;;;4958303;28;20041;-69
2022/01/05 01:33:08;;;;;;;2.47;0.77;;;6.80;91.20;;;;;;4958016;28;20039;-70
2022/01/05 01:35:34;;;;;;;2.35;0.68;;;6.80;91.30;;;;;;4956698;28;20039;-70
2022/01/05 01:38:00;;;;;;;3.15;0.88;;;6.80;91.20;;;;;;4953302;28;20031;-70
2022/01/05 01:40:27;;;;;;;1.45;0.50;;;6.80;91.00;;;;;;4952928;28;20039;-70
2022/01/05 01:42:53;;;;;;;4.38;0.95;;;6.90;91.00;;;;;;4958565;28;20034;-69
2022/01/05 01:45:19;;;;;;;6.05;0.85;;;6.80;91.00;;;;;;4957696;28;20416;-70
2022/01/05 01:47:46;;;;;;;3.95;0.77;;;6.80;90.80;;;;;;4957688;28;20043;-70
2022/01/05 01:50:12;;;;;;;2.72;0.98;;;6.80;90.70;;;;;;4957400;28;20042;-70
2022/01/05 01:52:38;;;;;;;2.15;0.80;;;6.80;90.60;;;;;;4959002;28;20030;-70
2022/01/05 01:55:05;;;;;;;3.00;0.73;;;6.80;90.70;;;;;;4958006;28;20118;-69
2022/01/05 01:57:35;;;;;;;2.45;0.60;;;6.80;90.80;;;;;;4955683;28;20031;-71
2022/01/05 02:00:02;;;;;;;2.50;0.57;;;6.80;90.70;;;;;;4958318;28;20035;-70
2022/01/05 02:02:38;;;;;;;2.83;0.77;;;6.80;90.70;;;;;;4959684;28;20041;-70
2022/01/05 02:05:05;;;;;;;2.67;0.80;;;6.80;90.50;;;;;;4961546;28;20047;-71
2022/01/05 02:07:30;;;;;;;1.48;0.80;;;6.80;90.60;;;;;;4960344;28;20047;-70
2022/01/05 02:09:56;;;;;;;2.05;0.52;;;6.90;90.60;;;;;;4960482;28;20814;-71
2022/01/05 02:12:26;;;;;;;2.28;0.90;;;6.90;90.40;;;;;;4957007;28;20680;-70
2022/01/05 02:14:53;;;;;;;4.00;0.85;;;6.80;90.50;;;;;;4966244;28;20039;-69
2022/01/05 02:17:22;;;;;;;4.00;0.80;;;6.90;90.40;;;;;;4959674;28;20030;-69
2022/01/05 02:19:48;;;;;;;3.15;0.75;;;6.90;90.40;;;;;;4960045;28;20034;-70
2022/01/05 02:22:14;;;;;;;4.20;1.20;;;6.90;90.50;;;;;;4953676;28;20023;-70
2022/01/05 02:24:46;;;;;;;3.15;0.60;;;6.90;90.30;;;;;;4963986;28;20410;-71
2022/01/05 02:27:12;;;;;;;5.50;1.00;;;6.80;90.10;;;;;;4960031;28;20035;-71
2022/01/05 02:29:38;;;;;;;1.50;0.70;;;6.80;90.00;;;;;;4959826;28;20046;-71
2022/01/05 02:32:04;;;;;;;5.47;0.80;;;6.80;90.10;;;;;;4957941;28;20030;-71
2022/01/05 02:34:29;;;;;;;6.18;0.95;;;6.80;88.80;;;;;;4957096;28;20031;-70
2022/01/05 02:36:55;;;;;;;1.00;0.50;;;6.80;89.60;;;;;;4955276;28;20043;-71
2022/01/05 02:39:21;;;;;;;4.00;0.73;;;6.80;89.70;;;;;;4960672;28;20043;-71
2022/01/05 02:41:46;;;;;;;2.22;0.73;;;6.80;90.30;;;;;;4962808;28;20058;-70
2022/01/05 02:44:12;;;;;;;2.50;0.70;;;6.80;89.70;;;;;;4956979;28;20483;-71
2022/01/05 02:46:38;;;;;;;7.53;1.92;;;6.80;89.40;;;;;;4959710;28;20077;-70
2022/01/05 02:49:04;;;;;;;0.88;0.47;;;6.80;89.80;;;;;;4957888;28;20035;-69
2022/01/05 02:51:30;;;;;;;2.50;0.70;;;6.90;89.40;;;;;;4955043;28;20042;-70
2022/01/05 02:53:56;;;;;;;3.38;0.80;;;6.90;89.60;;;;;;4959026;28;20100;-71
2022/01/05 02:56:22;;;;;;;5.10;1.48;;;6.90;89.60;;;;;;4963794;28;20031;-70
2022/01/05 02:58:48;;;;;;;7.05;1.02;;;6.90;89.40;;;;;;4963109;28;20050;-71
2022/01/05 03:01:14;;;;;;;2.50;0.75;;;6.80;89.70;;;;;;4961261;28;20027;-71
2022/01/05 03:03:39;;;;;;;3.22;0.60;;;6.90;89.50;;;;;;4954831;28;20689;-70
2022/01/05 03:06:05;;;;;;;2.88;0.80;;;6.90;89.40;;;;;;4956755;28;20055;-71
2022/01/05 03:08:31;;;;;;;1.95;0.73;;;6.90;89.60;;;;;;4960643;28;20134;-71
2022/01/05 03:10:56;;;;;;;3.65;0.90;;;6.90;89.20;;;;;;4963689;28;20046;-72
2022/01/05 03:13:25;;;;;;;2.38;1.00;;;6.80;89.30;;;;;;4960081;28;20045;-71
2022/01/05 03:15:52;;;;;;;5.57;0.82;;;6.90;89.50;;;;;;4961040;28;20117;-71
2022/01/05 03:18:18;;;;;;;3.97;0.50;;;6.80;89.40;;;;;;4951837;28;20035;-71
2022/01/05 03:20:46;;;;;;;2.92;0.60;;;6.80;89.40;;;;;;4957692;28;20019;-71
2022/01/05 03:23:12;;;;;;;5.72;0.57;;;6.80;89.30;;;;;;4960821;28;20038;-69
2022/01/05 03:25:39;;;;;;;6.18;1.02;;;6.80;89.00;;;;;;4967600;28;20049;-69
2022/01/05 03:28:04;;;;;;;3.08;0.70;;;6.80;89.00;;;;;;4959829;28;20047;-71
2022/01/05 03:30:30;;;;;;;4.65;0.88;;;6.80;89.30;;;;;;4958835;28;20031;-70
2022/01/05 03:35:28;;;;;;;3.60;1.02;;;6.70;88.30;;;;;;4960351;28;20143;-69
2022/01/05 03:37:54;;;;;;;1.20;0.45;;;6.70;88.40;;;;;;4961228;28;20387;-70
2022/01/05 03:40:20;;;;;;;3.35;0.75;;;6.70;88.50;;;;;;4958404;28;20037;-69
2022/01/05 03:42:45;;;;;;;6.65;0.60;;;6.70;88.40;;;;;;4960045;28;20463;-70
2022/01/05 03:45:11;;;;;;;4.47;1.58;;;6.70;88.30;;;;;;4955966;28;20031;-70
2022/01/05 03:47:37;;;;;;;1.25;0.52;;;6.70;89.20;;;;;;4960722;28;20090;-70
2022/01/05 03:50:03;;;;;;;2.67;0.70;;;6.70;88.60;;;;;;4957316;28;20083;-69
2022/01/05 03:52:29;;;;;;;3.50;0.50;;;6.60;88.30;;;;;;4964381;28;20537;-70
2022/01/05 03:54:54;;;;;;;2.90;0.45;;;6.70;88.30;;;;;;4955713;28;20030;-69
2022/01/05 03:57:20;;;;;;;5.38;0.80;;;6.60;88.40;;;;;;4956693;28;20830;-70
2022/01/05 03:59:46;;;;;;;5.13;0.80;;;6.70;88.90;;;;;;4958574;28;20058;-69
2022/01/05 04:02:12;;;;;;;1.60;0.93;;;6.60;88.30;;;;;;4954239;28;20129;-70
2022/01/05 04:04:37;;;;;;;1.73;0.50;;;6.60;88.20;;;;;;4961543;28;20034;-70
2022/01/05 04:07:04;;;;;;;5.90;1.80;;;6.70;87.70;;;;;;4960615;28;20087;-71
2022/01/05 04:09:30;;;;;;;2.95;0.80;;;6.60;86.90;;;;;;4955490;28;20064;-70
2022/01/05 04:11:55;;;;;;;9.55;1.05;;;6.60;87.00;;;;;;4956586;28;20054;-70
2022/01/05 04:14:21;;;;;;;7.55;0.75;;;6.50;86.50;;;;;;4954682;28;20039;-70
2022/01/05 04:16:47;;;;;;;1.65;0.65;;;6.40;86.60;;;;;;4957437;28;20030;-69
2022/01/05 04:19:13;;;;;;;3.67;0.70;;;6.30;87.70;;;;;;4960173;28;20039;-70
2022/01/05 04:21:39;;;;;;;5.63;1.17;;;6.20;87.90;;;;;;4958993;28;20030;-70
2022/01/05 04:24:05;;;;;;;2.47;0.50;;;6.20;88.30;;;;;;4953993;28;20074;-70
2022/01/05 04:26:31;;;;;;;5.22;0.85;;;6.20;89.00;;;;;;4957538;28;20038;-70
2022/01/05 04:28:56;;;;;;;4.70;0.43;;;6.10;89.10;;;;;;4947362;28;20043;-69
2022/01/05 04:31:22;;;;;;;7.72;1.17;;;6.00;89.70;;;;;;4956107;28;20066;-71
2022/01/05 04:33:48;;;;;;;3.03;0.60;;;6.00;89.60;;;;;;4958819;28;20034;-71
2022/01/05 04:36:13;;;;;;;6.13;0.90;;;6.00;89.20;;;;;;4958777;28;20037;-70
2022/01/05 04:38:39;;;;;;;4.18;0.70;;;6.00;89.80;;;;;;4961833;28;20502;-71
2022/01/05 04:41:05;;;;;;;1.98;0.50;;;5.90;89.50;;;;;;4957806;28;20043;-70
2022/01/05 04:43:31;;;;;;;3.67;0.85;;;6.00;90.10;;;;;;4952620;28;20035;-68
2022/01/05 04:45:56;;;;;;;2.63;0.60;;;5.90;89.90;;;;;;4961272;28;20449;-69
2022/01/05 04:48:22;;;;;;;2.33;0.70;;;5.90;90.30;;;;;;4959231;28;20102;-69
2022/01/05 04:50:48;;;;;;;5.20;0.80;;;5.90;90.30;;;;;;4955039;28;20478;-70
2022/01/05 04:53:14;;;;;;;5.65;0.85;;;5.90;89.50;;;;;;4955586;28;20035;-69
2022/01/05 04:55:41;;;;;;;6.97;0.90;;;5.90;90.10;;;;;;4957719;28;20041;-70
2022/01/05 04:58:07;;;;;;;3.08;0.77;;;5.90;90.00;;;;;;4947977;28;20035;-69
2022/01/05 05:00:32;;;;;;;5.93;1.00;;;5.90;90.00;;;;;;4961722;28;20038;-70
2022/01/05 05:02:58;;;;;;;5.63;1.15;;;6.00;90.00;;;;;;4961812;28;20491;-70
2022/01/05 05:05:24;;;;;;;3.85;0.68;;;5.90;90.10;;;;;;4959543;28;20471;-70
2022/01/05 05:07:50;;;;;;;6.35;0.80;;;5.90;90.10;;;;;;4958653;28;20031;-70
2022/01/05 05:10:16;;;;;;;8.88;0.73;;;5.80;90.10;;;;;;4955120;28;20665;-69
2022/01/05 05:12:42;;;;;;;8.20;0.70;;;5.80;90.40;;;;;;4964290;28;20039;-70
2022/01/05 05:15:08;;;;;;;3.47;1.00;;;5.70;90.60;;;;;;4963374;28;20027;-70
2022/01/05 05:17:33;;;;;;;9.63;1.15;;;5.70;90.60;;;;;;4963612;28;20027;-70
2022/01/05 05:19:59;;;;;;;4.70;0.75;;;5.70;90.70;;;;;;4959253;28;20031;-70
2022/01/05 05:22:25;;;;;;;1.52;0.68;;;5.70;90.70;;;;;;4957938;28;20098;-69
2022/01/05 05:24:51;;;;;;;3.25;0.70;;;5.70;90.80;;;;;;4959971;28;20086;-70
2022/01/05 05:27:17;;;;;;;6.63;1.10;;;5.70;90.80;;;;;;4960536;28;20049;-70
2022/01/05 05:29:42;;;;;;;9.10;1.40;;;5.70;90.60;;;;;;4961086;28;20030;-70
2022/01/05 05:32:08;;;;;;;3.42;1.67;;;5.80;90.70;;;;;;4958109;28;20502;-70
2022/01/05 05:34:34;;;;;;;5.72;0.70;;;5.80;90.80;;;;;;4955856;28;20031;-70
2022/01/05 05:37:00;;;;;;;2.40;0.60;;;5.70;90.70;;;;;;4955983;28;20499;-70
2022/01/05 05:39:26;;;;;;;6.43;0.95;;;5.70;90.80;;;;;;4959125;28;20038;-70
2022/01/05 05:41:52;;;;;;;5.35;0.52;;;5.80;90.80;;;;;;4961507;28;20073;-70
2022/01/05 05:44:18;;;;;;;6.85;0.95;;;5.80;90.70;;;;;;4963488;28;20038;-70
2022/01/05 05:46:43;;;;;;;7.85;0.90;;;5.80;90.30;;;;;;4959187;28;20037;-70
2022/01/05 05:49:09;;;;;;;8.00;1.42;;;5.70;90.40;;;;;;4955405;28;20042;-70
2022/01/05 05:51:35;;;;;;;5.40;1.15;;;5.70;90.70;;;;;;4960984;28;20057;-70
2022/01/05 05:54:01;;;;;;;5.40;1.05;;;5.70;90.70;;;;;;4957755;28;20186;-68
2022/01/05 05:56:27;;;;;;;10.82;1.15;;;5.70;90.70;;;;;;4964782;28;20055;-68
2022/01/05 05:58:53;;;;;;;5.40;0.90;;;5.80;90.70;;;;;;4967111;28;20169;-70
2022/01/05 06:01:19;;;;;;;2.95;0.90;;;5.80;90.60;;;;;;4957624;28;20066;-69
2022/01/05 06:03:44;;;;;;;6.38;1.35;;;5.80;90.50;;;;;;4960269;28;20033;-68
2022/01/05 06:06:10;;;;;;;4.28;0.85;;;5.80;90.50;;;;;;4960095;28;20118;-70
2022/01/05 06:08:36;;;;;;;4.78;0.68;;;5.80;90.50;;;;;;4953503;28;20039;-69
2022/01/05 06:11:02;;;;;;;5.88;1.55;;;5.80;90.40;;;;;;4960115;28;20035;-69
2022/01/05 06:13:27;;;;;;;4.28;1.05;;;5.80;90.40;;;;;;4966392;28;20046;-69
2022/01/05 06:15:53;;;;;;;4.75;0.90;;;5.80;90.30;;;;;;4964795;28;20023;-69
2022/01/05 06:18:19;;;;;;;3.58;1.05;;;5.90;90.20;;;;;;4960207;28;20093;-69
2022/01/05 06:20:45;;;;;;;7.85;1.48;;;5.90;90.20;;;;;;4965724;28;20042;-69
2022/01/05 06:23:10;;;;;;;2.83;1.00;;;5.80;90.30;;;;;;4954735;28;20055;-69
2022/01/05 06:25:36;;;;;;;4.60;1.00;;;5.80;90.40;;;;;;4962455;28;20043;-69
2022/01/05 06:28:03;;;;;;;4.70;1.13;;;5.80;90.30;;;;;;4964251;28;20130;-70
2022/01/05 06:30:29;;;;;;;3.95;1.20;;;5.70;90.10;;;;;;4957343;28;20047;-69
2022/01/05 06:32:54;;;;;;;2.97;0.70;;;5.70;90.30;;;;;;4959166;28;20039;-69
2022/01/05 06:35:23;;;;;;;2.65;0.57;;;5.60;90.50;;;;;;4962230;28;20435;-70
2022/01/05 06:37:53;;;;;;;7.38;1.10;;;5.60;90.50;;;;;;4953157;28;20026;-69
2022/01/05 06:40:19;;;;;;;4.68;0.88;;;5.60;90.60;;;;;;4963035;28;20042;-69
2022/01/05 06:42:45;;;;;;;3.35;0.68;;;5.60;90.50;;;;;;4966822;28;20768;-69
2022/01/05 06:45:10;;;;;;;2.75;0.68;;;5.60;90.60;;;;;;4962218;28;20046;-69
2022/01/05 06:47:36;;;;;;;4.22;0.73;;;5.60;90.50;;;;;;4959670;28;20037;-70
2022/01/05 06:50:02;;;;;;;5.30;1.10;;;5.60;90.50;;;;;;4952127;28;20775;-70
2022/01/05 06:52:28;;;;;;;6.03;1.10;;;5.60;90.30;;;;;;4953076;28;20042;-70
2022/01/05 06:54:54;;;;;;;3.78;1.10;;;5.60;90.30;;;;;;4962604;28;20026;-69
2022/01/05 06:57:20;;;;;;;3.60;0.90;;;5.60;90.30;;;;;;4961564;28;20045;-70
2022/01/05 06:59:45;;;;;;;4.43;0.80;;;5.50;90.40;;;;;;4964789;28;20038;-70
2022/01/05 07:02:11;;;;;;;3.85;0.95;;;5.60;90.50;;;;;;4955542;28;20041;-70
2022/01/05 07:04:37;;;;;;;7.05;1.38;;;5.50;90.30;;;;;;4959356;28;20076;-70
2022/01/05 07:07:03;;;;;;;4.88;1.10;;;5.60;90.10;;;;;;4959338;28;20047;-69
2022/01/05 07:09:28;;;;;;;7.68;1.05;;;5.60;89.90;;;;;;4961980;28;20066;-70
2022/01/05 07:11:54;;;;;;;5.93;1.27;;;5.60;89.60;;;;;;4956727;28;20845;-70
2022/01/05 07:14:20;;;;;;;4.95;0.93;;;5.50;89.10;;;;;;4959755;28;20081;-70
2022/01/05 07:16:45;;;;;;;3.58;0.90;;;5.50;90.00;;;;;;4962852;28;20023;-70
2022/01/05 07:19:11;;;;;;;7.50;1.17;;;5.50;90.00;;;;;;4961568;28;20034;-70
2022/01/05 07:21:37;;;;;;;7.80;2.00;;;5.50;90.10;;;;;;4958868;28;20027;-69
2022/01/05 07:24:04;;;;;;;6.63;1.00;;;5.50;90.10;;;;;;4960076;28;20081;-70
2022/01/05 07:26:31;;;;;;;4.43;1.05;;;5.50;90.30;;;;;;4960068;28;20145;-70
2022/01/05 07:28:57;;;;;;;6.00;1.10;;;5.50;90.10;;;;;;4958092;28;20138;-70
2022/01/05 07:31:23;;;;;;;4.72;1.35;;;5.40;90.30;;;;;;4957134;28;20042;-69
2022/01/05 07:33:49;;;;;;;5.40;1.20;;;5.40;90.40;;;;;;4956941;28;20037;-69
2022/01/05 07:36:14;;;;;;;4.55;1.05;;;5.40;90.30;;;;;;4961995;28;20027;-70
2022/01/05 07:38:40;;;;;;;6.28;1.38;;;5.40;89.80;;;;;;4959959;28;20861;-70
2022/01/05 07:41:06;;;;;;;7.22;1.08;;;5.50;88.80;;;;;;4959862;28;20034;-69
2022/01/05 07:43:32;;;;;;;8.18;1.48;;;5.40;89.10;;;;;;4959312;28;20046;-68
2022/01/05 07:45:57;;;;;;;27.77;8.88;;;5.40;89.40;;;;;;4958485;28;20049;-69
2022/01/05 07:48:23;;;;;;;18.90;6.85;;;5.30;89.70;;;;;;4956738;28;20150;-69
2022/01/05 07:50:49;;;;;;;8.52;3.17;;;5.30;89.70;;;;;;4962374;28;20654;-70
2022/01/05 07:53:15;;;;;;;10.73;4.72;;;5.30;88.90;;;;;;4957456;28;20035;-70
2022/01/05 07:55:40;;;;;;;7.65;2.88;;;5.40;88.80;;;;;;4958639;28;20035;-65
2022/01/05 07:58:06;;;;;;;9.95;2.17;;;5.20;89.40;;;;;;4960394;28;20042;-69
2022/01/05 08:00:32;;;;;;;15.07;3.08;;;5.00;89.70;;;;;;4958250;28;20038;-68
2022/01/05 08:02:58;;;;;;;9.45;2.85;;;5.00;90.00;;;;;;4957329;28;20055;-68
2022/01/05 08:05:23;;;;;;;6.50;1.98;;;5.10;90.00;;;;;;4960848;28;20038;-70
2022/01/05 08:07:49;;;;;;;10.52;2.42;;;5.00;89.90;;;;;;4960190;28;20086;-69
2022/01/05 08:10:15;;;;;;;9.77;2.22;;;5.00;89.70;;;;;;4955200;28;20042;-69
2022/01/05 08:12:41;;;;;;;9.38;2.35;;;5.00;89.70;;;;;;4959008;28;20038;-68
2022/01/05 08:15:09;;;;;;;9.85;3.50;;;5.00;89.40;;;;;;4957396;28;20116;-69
2022/01/05 08:17:35;;;;;;;16.25;6.35;;;5.00;89.90;;;;;;4963125;28;20042;-62
2022/01/05 08:20:01;;;;;;;14.27;8.15;;;5.00;89.90;;;;;;4956045;28;20039;-67
2022/01/05 08:22:27;;;;;;;12.85;3.85;;;5.00;89.80;;;;;;4959053;28;20502;-68
2022/01/05 08:24:53;;;;;;;15.30;6.43;;;4.90;89.10;;;;;;4960952;28;20035;-68
2022/01/05 08:27:18;;;;;;;7.03;2.70;;;4.90;89.50;;;;;;4955948;28;20126;-66
2022/01/05 08:29:44;;;;;;;20.65;6.43;;;4.80;89.10;;;;;;4958411;28;20035;-67
2022/01/05 08:32:10;;;;;;;15.00;2.25;;;4.80;88.90;;;;;;4959327;28;20039;-62
2022/01/05 08:34:36;;;;;;;12.05;2.85;;;4.80;89.70;;;;;;4959105;28;20031;-71
2022/01/05 08:37:02;;;;;;;6.47;2.13;;;4.80;89.70;;;;;;4963292;28;20113;-70
2022/01/05 08:39:27;;;;;;;28.58;9.45;;;4.90;89.20;;;;;;4962055;28;20074;-67
2022/01/05 08:41:53;;;;;;;10.82;2.30;;;5.00;88.60;;;;;;4955870;28;20136;-68
2022/01/05 08:44:19;;;;;;;43.63;14.45;;;5.10;86.10;;;;;;4955904;28;20682;-68
2022/01/05 08:46:45;;;;;;;25.50;7.80;;;5.20;86.20;;;;;;4955278;28;20038;-68
2022/01/05 08:49:11;;;;;;;36.42;11.90;;;5.30;86.00;;;;;;4957166;28;20550;-69
2022/01/05 08:51:38;;;;;;;39.00;14.32;;;5.30;85.30;;;;;;4958103;28;20446;-68
2022/01/05 08:54:05;;;;;;;25.38;7.35;;;5.30;83.60;;;;;;4952668;28;20483;-69
2022/01/05 08:56:30;;;;;;;14.93;4.90;;;5.20;85.00;;;;;;4959352;28;20618;-68
2022/01/05 08:58:56;;;;;;;15.25;2.72;;;5.20;85.20;;;;;;4954695;28;20035;-69
2022/01/05 09:01:25;;;;;;;16.10;2.53;;;5.30;84.50;;;;;;4956177;28;20031;-70
2022/01/05 09:03:52;;;;;;;9.15;2.47;;;5.30;83.80;;;;;;4957535;28;20082;-71
2022/01/05 09:06:22;;;;;;;10.70;3.58;;;5.40;84.50;;;;;;4956467;28;20476;-71
2022/01/05 09:08:48;;;;;;;11.25;3.35;;;5.50;83.80;;;;;;4963156;28;20045;-72
2022/01/05 09:11:15;;;;;;;13.95;2.33;;;5.60;82.60;;;;;;4960989;28;20035;-70
2022/01/05 09:13:42;;;;;;;9.10;2.20;;;5.90;82.70;;;;;;4959227;28;20035;-69
2022/01/05 09:16:07;;;;;;;8.68;2.63;;;6.30;81.00;;;;;;4945564;28;20571;-70
2022/01/05 09:18:33;;;;;;;16.35;4.05;;;6.90;78.90;;;;;;4961439;28;20035;-69
2022/01/05 09:20:59;;;;;;;8.57;1.90;;;7.30;74.60;;;;;;4957541;28;20869;-63
2022/01/05 09:23:25;;;;;;;15.73;2.95;;;7.70;74.70;;;;;;4956799;28;20049;-69
2022/01/05 09:25:51;;;;;;;14.07;3.03;;;8.10;71.00;;;;;;4960286;28;20049;-68
2022/01/05 09:28:17;;;;;;;13.20;3.70;;;8.40;71.10;;;;;;4957732;28;20035;-70
2022/01/05 09:30:45;;;;;;;6.10;1.75;;;8.80;68.50;;;;;;4960719;28;20824;-70
2022/01/05 09:33:15;;;;;;;7.78;1.60;;;8.80;67.50;;;;;;4958277;28;20034;-71
2022/01/05 09:35:42;;;;;;;8.18;1.90;;;8.90;68.70;;;;;;4950841;28;20029;-69
2022/01/05 09:38:21;;;;;;;13.85;2.90;;;9.50;65.60;;;;;;4956918;28;20423;-70
2022/01/05 09:43:51;;;;;;;9.18;2.53;;;10.10;61.90;;;;;;4958543;28;20034;-70
2022/01/05 09:46:44;;;;;;;9.55;1.40;;;10.60;62.40;;;;;;4962233;28;20038;-71
2022/01/05 09:49:16;;;;;;;6.15;1.65;;;11.20;59.70;;;;;;4960613;28;20055;-68
2022/01/05 09:51:42;;;;;;;6.47;1.42;;;11.50;58.10;;;;;;4962930;28;20046;-68
2022/01/05 09:54:10;;;;;;;16.55;2.72;;;11.60;58.00;;;;;;4937266;28;20048;-68
2022/01/05 09:56:37;;;;;;;11.98;1.95;;;11.80;55.50;;;;;;4921293;29;20044;-69
2022/01/05 09:59:04;;;;;;;6.35;1.10;;;11.80;56.50;;;;;;4925566;29;20075;-68
2022/01/05 10:01:35;;;;;;;10.52;1.67;;;11.90;55.20;;;;;;4915428;29;20112;-69
2022/01/05 10:04:02;;;;;;;12.63;2.50;;;11.30;55.90;;;;;;4916339;29;20123;-68
2022/01/05 10:06:27;;;;;;;6.10;1.30;;;10.90;57.70;;;;;;4920507;29;20171;-69
2022/01/05 10:08:53;;;;;;;5.72;1.00;;;11.00;57.90;;;;;;4922992;29;20028;-69
2022/01/05 10:11:23;;;;;;;10.05;2.67;;;11.00;57.70;;;;;;4912051;29;20381;-69
2022/01/05 10:13:52;;;;;;;14.45;2.70;;;11.00;57.00;;;;;;4920932;29;20038;-69
2022/01/05 10:16:18;;;;;;;9.02;1.70;;;10.50;58.00;;;;;;4913630;29;20039;-69
2022/01/05 10:18:44;;;;;;;25.25;3.88;;;10.00;59.60;;;;;;4913069;29;20027;-69
2022/01/05 10:21:14;;;;;;;7.88;1.45;;;9.60;60.50;;;;;;4919471;29;20027;-69
2022/01/05 10:23:44;;;;;;;11.32;1.73;;;9.10;63.00;;;;;;4923779;29;20110;-68
2022/01/05 10:26:29;;;;;;;8.30;1.30;;;8.90;64.30;;;;;;4917374;29;20693;-68
2022/01/05 10:28:58;;;;;;;8.00;1.88;;;9.10;62.70;;;;;;4919366;29;20134;-69
2022/01/05 10:31:27;;;;;;;10.60;2.25;;;9.10;63.50;;;;;;4914269;29;20032;-70
2022/01/05 10:33:53;;;;;;;6.47;1.85;;;9.20;63.70;;;;;;4923668;29;20024;-69
2022/01/05 10:36:19;;;;;;;10.20;1.73;;;9.30;63.20;;;;;;4922897;29;20165;-67
2022/01/05 10:38:54;;;;;;;13.57;1.60;;;9.00;63.40;;;;;;4923133;29;20822;-68
2022/01/05 10:41:21;;;;;;;10.80;2.08;;;8.70;63.70;;;;;;4924119;29;20043;-69
2022/01/05 10:44:16;;;;;;;6.53;1.77;;;8.10;64.50;;;;;;4923809;29;20032;-67
2022/01/05 10:47:05;;;;;;;6.28;1.48;;;8.00;68.10;;;;;;4921009;29;20032;-68
2022/01/05 10:49:34;;;;;;;7.82;1.38;;;7.90;68.30;;;;;;4922215;29;20456;-69
2022/01/05 10:52:17;;;;;;;6.38;1.40;;;7.90;68.10;;;;;;4921927;29;20475;-67
2022/01/05 10:54:43;;;;;;;10.85;1.70;;;7.90;67.90;;;;;;4921809;29;20826;-66
2022/01/05 10:57:12;;;;;;;5.50;1.45;;;7.90;67.20;;;;;;4924123;29;20093;-66
2022/01/05 10:59:42;;;;;;;7.03;1.40;;;7.80;67.00;;;;;;4919774;29;20036;-66
2022/01/05 11:02:28;;;;;;;7.82;1.35;;;7.70;68.00;;;;;;4923016;29;20111;-69
2022/01/05 11:05:15;;;;;;;8.05;2.13;;;7.60;69.60;;;;;;4922364;29;20066;-68
2022/01/05 11:07:46;;;;;;;8.23;1.55;;;7.70;69.00;;;;;;4920018;29;20028;-67
2022/01/05 11:10:17;;;;;;;7.95;1.73;;;7.60;68.30;;;;;;4919428;29;20036;-68
2022/01/05 11:12:51;;;;;;;9.00;2.00;;;7.20;69.20;;;;;;4915579;29;20043;-68
2022/01/05 11:15:23;;;;;;;9.20;2.10;;;7.20;69.80;;;;;;4927125;29;20046;-67
2022/01/05 11:18:18;;;;;;;13.00;2.65;;;7.30;69.90;;;;;;4919743;29;20749;-66
2022/01/05 11:20:50;;;;;;;14.05;2.22;;;7.20;69.30;;;;;;4919232;29;20032;-67
2022/01/05 11:23:20;;;;;;;14.15;4.35;;;7.10;70.70;;;;;;4920921;29;20583;-67
2022/01/05 11:25:47;;;;;;;12.63;4.53;;;7.20;70.40;;;;;;4921659;29;20067;-68
2022/01/05 11:28:15;;;;;;;11.40;3.38;;;7.30;70.40;;;;;;4917120;29;20036;-68
2022/01/05 11:30:42;;;;;;;6.28;2.03;;;7.20;69.50;;;;;;4921468;29;20042;-67
2022/01/05 11:33:10;;;;;;;6.72;1.73;;;7.20;70.50;;;;;;4923097;29;20043;-68
2022/01/05 11:35:37;;;;;;;8.90;2.50;;;7.30;70.40;;;;;;4919010;29;20028;-67
2022/01/05 11:38:04;;;;;;;6.93;1.90;;;7.40;70.20;;;;;;4907774;29;20114;-68
2022/01/05 11:40:31;;;;;;;10.18;2.70;;;7.40;69.40;;;;;;4915259;29;20512;-68
2022/01/05 11:43:01;;;;;;;18.15;2.85;;;7.40;68.90;;;;;;4915111;29;20063;-68
2022/01/05 11:45:35;;;;;;;12.15;2.20;;;7.10;69.60;;;;;;4917620;29;20036;-68
2022/01/05 11:48:14;;;;;;;9.27;2.60;;;6.90;70.40;;;;;;4922715;29;20165;-67
2022/01/05 11:50:56;;;;;;;10.45;1.60;;;6.60;71.60;;;;;;4919185;29;20035;-68
2022/01/05 11:53:39;;;;;;;7.82;2.28;;;6.60;72.10;;;;;;4922087;29;20485;-67
2022/01/05 11:56:20;;;;;;;8.77;2.03;;;6.70;71.40;;;;;;4914664;29;20717;-67
2022/01/05 11:59:01;;;;;;;9.93;1.90;;;6.80;71.40;;;;;;4916552;29;20028;-67
2022/01/05 12:01:35;;;;;;;4.03;1.50;;;7.00;71.70;;;;;;4922655;29;20039;-66
2022/01/05 12:04:09;;;;;;;4.35;1.63;;;6.80;72.10;;;;;;4915216;29;20052;-67
2022/01/05 12:07:02;;;;;;;6.25;2.03;;;6.80;71.80;;;;;;4918139;29;20032;-66
2022/01/05 12:09:33;;;;;;;5.93;2.42;;;7.00;71.90;;;;;;4920923;29;20449;-67
2022/01/05 12:12:19;;;;;;;5.30;1.58;;;7.00;70.70;;;;;;4922025;29;20031;-67
2022/01/05 12:14:46;;;;;;;7.30;1.63;;;7.00;70.50;;;;;;4935098;29;20177;-67
2022/01/05 12:17:14;;;;;;;6.38;1.70;;;6.90;72.10;;;;;;4916388;29;20582;-68
2022/01/05 12:19:46;;;;;;;7.63;2.40;;;7.10;72.00;;;;;;4911434;29;20748;-67
2022/01/05 12:22:33;;;;;;;9.70;1.73;;;7.00;69.60;;;;;;4915494;29;20047;-67
2022/01/05 12:25:04;;;;;;;8.10;2.00;;;7.20;71.40;;;;;;4908808;29;20040;-67
2022/01/05 12:27:58;;;;;;;7.60;2.05;;;7.20;70.60;;;;;;4912592;29;20035;-68
2022/01/05 12:30:26;;;;;;;10.65;8.25;;;7.20;71.00;;;;;;4917952;29;20445;-66
2022/01/05 12:33:04;;;;;;;10.50;7.68;;;7.00;70.70;;;;;;4917074;29;20039;-66
2022/01/05 12:36:02;;;;;;;10.52;2.92;;;7.00;72.10;;;;;;4915764;29;20139;-65
2022/01/05 12:38:40;;;;;;;13.45;5.65;;;6.90;71.50;;;;;;4919888;29;20039;-68
2022/01/05 12:41:26;;;;;;;8.45;4.28;;;7.00;71.80;;;;;;4913119;29;21067;-69
2022/01/05 12:43:53;;;;;;;25.33;9.43;;;6.80;71.80;;;;;;4932596;29;20087;-67
2022/01/05 12:46:41;;;;;;;11.40;4.15;;;6.80;72.20;;;;;;4910499;29;20108;-68
2022/01/05 12:49:17;;;;;;;9.65;2.13;;;6.80;71.90;;;;;;4914016;29;20082;-66
2022/01/05 12:51:44;;;;;;;10.73;3.80;;;6.60;71.50;;;;;;4911517;29;20036;-65
2022/01/05 12:54:20;;;;;;;11.40;3.72;;;6.60;73.00;;;;;;4911218;29;20090;-66
2022/01/05 12:57:00;;;;;;;10.70;4.60;;;6.70;72.60;;;;;;4921912;29;20032;-66
2022/01/05 12:59:39;;;;;;;10.00;1.98;;;6.60;72.80;;;;;;4918720;29;20093;-66
2022/01/05 13:02:19;;;;;;;10.30;2.45;;;6.40;72.70;;;;;;4914248;29;20559;-66
2022/01/05 13:04:46;;;;;;;7.00;1.95;;;6.20;74.90;;;;;;4916248;29;20056;-66